Terminal Aerodrome Forecast
Issued by NWS Springfield, MO

Home | Current Version | Previous Version | Text Only | Print | Product List | Glossary On
Versions: 1 2 3 4 5 6 7 8 9 10 11 12 13 14 15 16 17
000
FTUS43 KSGF 251700
TAFSGF
TAF
KSGF 251720Z 2518/2618 18008KT P6SM BKN150
     FM260000 24007KT P6SM OVC050
     FM260600 33014G21KT P6SM OVC040 PROB30 2606/2612 5SM -SN SCT010
      OVC020
     FM261200 35015G22KT P6SM BKN030=

USA.gov is the U.S. government's official web portal to all federal, state and local government web resources and services.